sensor_id;sensor_type;location;lat;lon;timestamp;temperature;humidity
10030;DHT22;5055;52.054;8.524;2023-11-21T00:00:34;7.60;97.00
10030;DHT22;5055;52.054;8.524;2023-11-21T00:03:04;7.70;97.00
10030;DHT22;5055;52.054;8.524;2023-11-21T00:05:33;7.70;97.00
10030;DHT22;5055;52.054;8.524;2023-11-21T00:08:02;7.70;97.00
10030;DHT22;5055;52.054;8.524;2023-11-21T00:10:30;7.70;97.00
10030;DHT22;5055;52.054;8.524;2023-11-21T00:12:58;7.70;97.00
10030;DHT22;5055;52.054;8.524;2023-11-21T00:15:26;7.80;97.00
10030;DHT22;5055;52.054;8.524;2023-11-21T00:17:54;7.80;97.00
10030;DHT22;5055;52.054;8.524;2023-11-21T00:20:24;7.80;97.00
10030;DHT22;5055;52.054;8.524;2023-11-21T00:22:52;7.80;97.00
10030;DHT22;5055;52.054;8.524;2023-11-21T00:25:20;7.80;97.00
10030;DHT22;5055;52.054;8.524;2023-11-21T00:27:49;7.80;97.00
10030;DHT22;5055;52.054;8.524;2023-11-21T00:30:17;7.80;97.00
10030;DHT22;5055;52.054;8.524;2023-11-21T00:32:46;7.80;97.00
10030;DHT22;5055;52.054;8.524;2023-11-21T00:35:15;7.90;97.00
10030;DHT22;5055;52.054;8.524;2023-11-21T00:37:44;7.90;97.00
10030;DHT22;5055;52.054;8.524;2023-11-21T00:40:13;7.90;97.00
10030;DHT22;5055;52.054;8.524;2023-11-21T00:42:42;7.90;97.00
10030;DHT22;5055;52.054;8.524;2023-11-21T00:45:10;7.90;97.00
10030;DHT22;5055;52.054;8.524;2023-11-21T00:47:39;7.90;97.00
10030;DHT22;5055;52.054;8.524;2023-11-21T00:50:08;7.90;97.00
10030;DHT22;5055;52.054;8.524;2023-11-21T00:52:36;7.90;97.00
10030;DHT22;5055;52.054;8.524;2023-11-21T00:55:06;7.90;97.00
10030;DHT22;5055;52.054;8.524;2023-11-21T00:57:35;7.90;97.00
10030;DHT22;5055;52.054;8.524;2023-11-21T01:00:05;8.00;97.00
10030;DHT22;5055;52.054;8.524;2023-11-21T01:02:37;7.90;97.00
10030;DHT22;5055;52.054;8.524;2023-11-21T01:05:06;7.90;97.00
10030;DHT22;5055;52.054;8.524;2023-11-21T01:07:35;8.00;97.00
10030;DHT22;5055;52.054;8.524;2023-11-21T01:10:05;8.00;97.00
10030;DHT22;5055;52.054;8.524;2023-11-21T01:12:34;8.00;97.00
10030;DHT22;5055;52.054;8.524;2023-11-21T01:15:04;8.00;97.00
10030;DHT22;5055;52.054;8.524;2023-11-21T01:17:34;8.00;97.00
10030;DHT22;5055;52.054;8.524;2023-11-21T01:20:03;8.00;97.00
10030;DHT22;5055;52.054;8.524;2023-11-21T01:22:33;8.00;97.00
10030;DHT22;5055;52.054;8.524;2023-11-21T01:25:02;8.00;97.00
10030;DHT22;5055;52.054;8.524;2023-11-21T01:27:35;8.00;97.00
10030;DHT22;5055;52.054;8.524;2023-11-21T01:30:04;8.00;97.00
10030;DHT22;5055;52.054;8.524;2023-11-21T01:32:34;8.00;97.00
10030;DHT22;5055;52.054;8.524;2023-11-21T01:35:03;8.00;97.00
10030;DHT22;5055;52.054;8.524;2023-11-21T01:37:33;8.00;97.00
10030;DHT22;5055;52.054;8.524;2023-11-21T01:40:01;8.00;97.00
10030;DHT22;5055;52.054;8.524;2023-11-21T01:42:29;8.10;97.00
10030;DHT22;5055;52.054;8.524;2023-11-21T01:44:59;8.00;97.00
10030;DHT22;5055;52.054;8.524;2023-11-21T01:47:32;8.10;97.00
10030;DHT22;5055;52.054;8.524;2023-11-21T01:50:03;8.10;97.00
10030;DHT22;5055;52.054;8.524;2023-11-21T01:52:33;8.10;97.00
10030;DHT22;5055;52.054;8.524;2023-11-21T01:55:03;8.10;97.00
10030;DHT22;5055;52.054;8.524;2023-11-21T01:57:33;8.10;97.00
10030;DHT22;5055;52.054;8.524;2023-11-21T02:00:03;8.10;97.00
10030;DHT22;5055;52.054;8.524;2023-11-21T02:02:42;8.10;97.00
10030;DHT22;5055;52.054;8.524;2023-11-21T02:05:12;8.10;97.00
10030;DHT22;5055;52.054;8.524;2023-11-21T02:07:40;8.10;97.00
10030;DHT22;5055;52.054;8.524;2023-11-21T02:10:09;8.10;97.00
10030;DHT22;5055;52.054;8.524;2023-11-21T02:12:41;8.10;97.00
10030;DHT22;5055;52.054;8.524;2023-11-21T02:15:13;8.10;97.00
10030;DHT22;5055;52.054;8.524;2023-11-21T02:17:47;8.10;97.00
10030;DHT22;5055;52.054;8.524;2023-11-21T02:20:20;8.10;97.00
10030;DHT22;5055;52.054;8.524;2023-11-21T02:22:52;8.10;97.00
10030;DHT22;5055;52.054;8.524;2023-11-21T02:25:24;8.10;97.00
10030;DHT22;5055;52.054;8.524;2023-11-21T02:27:53;8.10;97.00
10030;DHT22;5055;52.054;8.524;2023-11-21T02:30:21;8.10;97.00
10030;DHT22;5055;52.054;8.524;2023-11-21T02:32:51;8.10;97.00
10030;DHT22;5055;52.054;8.524;2023-11-21T02:35:20;8.10;97.00
10030;DHT22;5055;52.054;8.524;2023-11-21T02:37:49;8.10;97.00
10030;DHT22;5055;52.054;8.524;2023-11-21T02:40:18;8.10;97.00
10030;DHT22;5055;52.054;8.524;2023-11-21T02:42:47;8.10;97.00
10030;DHT22;5055;52.054;8.524;2023-11-21T02:45:18;8.10;97.00
10030;DHT22;5055;52.054;8.524;2023-11-21T02:47:48;8.10;97.00
10030;DHT22;5055;52.054;8.524;2023-11-21T02:50:17;8.20;97.00
10030;DHT22;5055;52.054;8.524;2023-11-21T02:52:47;8.20;97.00
10030;DHT22;5055;52.054;8.524;2023-11-21T02:55:15;8.20;97.00
10030;DHT22;5055;52.054;8.524;2023-11-21T02:57:45;8.20;97.00
10030;DHT22;5055;52.054;8.524;2023-11-21T03:00:14;8.20;97.00
10030;DHT22;5055;52.054;8.524;2023-11-21T03:02:43;8.20;97.00
10030;DHT22;5055;52.054;8.524;2023-11-21T03:05:11;8.20;97.00
10030;DHT22;5055;52.054;8.524;2023-11-21T03:07:39;8.20;97.00
10030;DHT22;5055;52.054;8.524;2023-11-21T03:10:09;8.20;97.00
10030;DHT22;5055;52.054;8.524;2023-11-21T03:12:38;8.20;97.00
10030;DHT22;5055;52.054;8.524;2023-11-21T03:15:09;8.20;97.00
10030;DHT22;5055;52.054;8.524;2023-11-21T03:17:37;8.20;97.00
10030;DHT22;5055;52.054;8.524;2023-11-21T03:20:07;8.20;97.00
10030;DHT22;5055;52.054;8.524;2023-11-21T03:22:38;8.20;97.00
10030;DHT22;5055;52.054;8.524;2023-11-21T03:25:07;8.20;97.00
10030;DHT22;5055;52.054;8.524;2023-11-21T03:27:38;8.20;97.00
10030;DHT22;5055;52.054;8.524;2023-11-21T03:30:09;8.20;97.00
10030;DHT22;5055;52.054;8.524;2023-11-21T03:32:38;8.20;97.00
10030;DHT22;5055;52.054;8.524;2023-11-21T03:35:06;8.20;97.00
10030;DHT22;5055;52.054;8.524;2023-11-21T03:37:35;8.20;97.00
10030;DHT22;5055;52.054;8.524;2023-11-21T03:40:06;8.20;97.00
10030;DHT22;5055;52.054;8.524;2023-11-21T03:42:35;8.20;97.00
10030;DHT22;5055;52.054;8.524;2023-11-21T03:45:04;8.20;97.00
10030;DHT22;5055;52.054;8.524;2023-11-21T03:47:33;8.20;97.00
10030;DHT22;5055;52.054;8.524;2023-11-21T03:50:02;8.20;97.00
10030;DHT22;5055;52.054;8.524;2023-11-21T03:52:31;8.20;97.00
10030;DHT22;5055;52.054;8.524;2023-11-21T03:54:59;8.20;97.00
10030;DHT22;5055;52.054;8.524;2023-11-21T03:57:27;8.20;97.00
10030;DHT22;5055;52.054;8.524;2023-11-21T03:59:55;8.20;97.00
10030;DHT22;5055;52.054;8.524;2023-11-21T04:02:23;8.20;97.00
10030;DHT22;5055;52.054;8.524;2023-11-21T04:04:55;8.20;97.00
10030;DHT22;5055;52.054;8.524;2023-11-21T04:07:23;8.20;97.00
10030;DHT22;5055;52.054;8.524;2023-11-21T04:09:51;8.20;97.00
10030;DHT22;5055;52.054;8.524;2023-11-21T04:12:20;8.20;97.00
10030;DHT22;5055;52.054;8.524;2023-11-21T04:14:48;8.20;97.00
10030;DHT22;5055;52.054;8.524;2023-11-21T04:17:19;8.20;97.00
10030;DHT22;5055;52.054;8.524;2023-11-21T04:19:47;8.20;97.00
10030;DHT22;5055;52.054;8.524;2023-11-21T04:22:16;8.20;97.00
10030;DHT22;5055;52.054;8.524;2023-11-21T04:24:45;8.20;97.00
10030;DHT22;5055;52.054;8.524;2023-11-21T04:27:13;8.20;97.00
10030;DHT22;5055;52.054;8.524;2023-11-21T04:29:41;8.20;97.00
10030;DHT22;5055;52.054;8.524;2023-11-21T04:32:09;8.10;97.00
10030;DHT22;5055;52.054;8.524;2023-11-21T04:34:37;8.10;97.00
10030;DHT22;5055;52.054;8.524;2023-11-21T04:37:05;8.10;97.00
10030;DHT22;5055;52.054;8.524;2023-11-21T04:39:35;8.10;97.00
10030;DHT22;5055;52.054;8.524;2023-11-21T04:42:04;8.10;97.00
10030;DHT22;5055;52.054;8.524;2023-11-21T04:44:32;8.10;97.00
10030;DHT22;5055;52.054;8.524;2023-11-21T04:47:00;8.10;97.00
10030;DHT22;5055;52.054;8.524;2023-11-21T04:49:31;8.10;97.00
10030;DHT22;5055;52.054;8.524;2023-11-21T04:52:00;8.10;97.00
10030;DHT22;5055;52.054;8.524;2023-11-21T04:54:28;8.10;97.00
10030;DHT22;5055;52.054;8.524;2023-11-21T04:56:58;8.10;97.00
10030;DHT22;5055;52.054;8.524;2023-11-21T04:59:28;8.10;97.00
10030;DHT22;5055;52.054;8.524;2023-11-21T05:01:57;8.10;97.00
10030;DHT22;5055;52.054;8.524;2023-11-21T05:04:27;8.10;97.00
10030;DHT22;5055;52.054;8.524;2023-11-21T05:06:55;8.10;97.00
10030;DHT22;5055;52.054;8.524;2023-11-21T05:09:23;8.10;97.00
10030;DHT22;5055;52.054;8.524;2023-11-21T05:11:52;8.10;97.00
10030;DHT22;5055;52.054;8.524;2023-11-21T05:14:23;8.10;97.00
10030;DHT22;5055;52.054;8.524;2023-11-21T05:16:51;8.00;97.00
10030;DHT22;5055;52.054;8.524;2023-11-21T05:19:20;8.00;97.00
10030;DHT22;5055;52.054;8.524;2023-11-21T05:21:48;8.00;97.00
10030;DHT22;5055;52.054;8.524;2023-11-21T05:24:17;8.00;97.00
10030;DHT22;5055;52.054;8.524;2023-11-21T05:26:45;8.00;97.00
10030;DHT22;5055;52.054;8.524;2023-11-21T05:29:13;8.00;97.00
10030;DHT22;5055;52.054;8.524;2023-11-21T05:31:42;8.00;97.00
10030;DHT22;5055;52.054;8.524;2023-11-21T05:34:10;8.00;97.00
10030;DHT22;5055;52.054;8.524;2023-11-21T05:36:43;8.00;97.00
10030;DHT22;5055;52.054;8.524;2023-11-21T05:39:12;8.00;97.00
10030;DHT22;5055;52.054;8.524;2023-11-21T05:41:40;8.00;97.00
10030;DHT22;5055;52.054;8.524;2023-11-21T05:44:08;8.00;97.00
10030;DHT22;5055;52.054;8.524;2023-11-21T05:46:37;8.00;97.00
10030;DHT22;5055;52.054;8.524;2023-11-21T05:49:07;8.00;97.00
10030;DHT22;5055;52.054;8.524;2023-11-21T05:51:35;8.00;97.00
10030;DHT22;5055;52.054;8.524;2023-11-21T05:54:04;8.00;97.00
10030;DHT22;5055;52.054;8.524;2023-11-21T05:56:32;8.00;97.00
10030;DHT22;5055;52.054;8.524;2023-11-21T05:59:00;8.00;97.00
10030;DHT22;5055;52.054;8.524;2023-11-21T06:01:30;8.00;97.00
10030;DHT22;5055;52.054;8.524;2023-11-21T06:03:58;8.00;97.00
10030;DHT22;5055;52.054;8.524;2023-11-21T06:06:28;8.00;97.00
10030;DHT22;5055;52.054;8.524;2023-11-21T06:08:57;8.00;97.00
10030;DHT22;5055;52.054;8.524;2023-11-21T06:11:26;8.00;97.00
10030;DHT22;5055;52.054;8.524;2023-11-21T06:13:54;8.00;97.00
10030;DHT22;5055;52.054;8.524;2023-11-21T06:16:22;8.00;97.00
10030;DHT22;5055;52.054;8.524;2023-11-21T06:18:51;8.00;97.00
10030;DHT22;5055;52.054;8.524;2023-11-21T06:21:19;8.00;97.00
10030;DHT22;5055;52.054;8.524;2023-11-21T06:23:49;8.00;97.00
10030;DHT22;5055;52.054;8.524;2023-11-21T06:26:19;8.00;97.00
10030;DHT22;5055;52.054;8.524;2023-11-21T06:28:48;8.00;97.00
10030;DHT22;5055;52.054;8.524;2023-11-21T06:31:18;8.00;97.00
10030;DHT22;5055;52.054;8.524;2023-11-21T06:33:49;8.10;97.00
10030;DHT22;5055;52.054;8.524;2023-11-21T06:36:19;8.10;97.00
10030;DHT22;5055;52.054;8.524;2023-11-21T06:38:51;8.10;97.00
10030;DHT22;5055;52.054;8.524;2023-11-21T06:41:20;8.10;97.00
10030;DHT22;5055;52.054;8.524;2023-11-21T06:43:52;8.10;97.00
10030;DHT22;5055;52.054;8.524;2023-11-21T06:46:20;8.10;97.00
10030;DHT22;5055;52.054;8.524;2023-11-21T06:48:49;8.10;97.00
10030;DHT22;5055;52.054;8.524;2023-11-21T06:51:17;8.10;97.00
10030;DHT22;5055;52.054;8.524;2023-11-21T06:53:45;8.10;97.00
10030;DHT22;5055;52.054;8.524;2023-11-21T06:56:18;8.10;97.00
10030;DHT22;5055;52.054;8.524;2023-11-21T06:58:47;8.10;97.00
10030;DHT22;5055;52.054;8.524;2023-11-21T07:01:16;8.10;97.00
10030;DHT22;5055;52.054;8.524;2023-11-21T07:03:44;8.10;97.00
10030;DHT22;5055;52.054;8.524;2023-11-21T07:06:12;8.10;97.00
10030;DHT22;5055;52.054;8.524;2023-11-21T07:08:43;8.10;97.00
10030;DHT22;5055;52.054;8.524;2023-11-21T07:11:12;8.10;97.00
10030;DHT22;5055;52.054;8.524;2023-11-21T07:13:41;8.10;97.00
10030;DHT22;5055;52.054;8.524;2023-11-21T07:16:09;8.20;97.00
10030;DHT22;5055;52.054;8.524;2023-11-21T07:18:37;8.20;97.00
10030;DHT22;5055;52.054;8.524;2023-11-21T07:21:08;8.20;97.00
10030;DHT22;5055;52.054;8.524;2023-11-21T07:23:38;8.20;97.00
10030;DHT22;5055;52.054;8.524;2023-11-21T07:26:06;8.20;97.00
10030;DHT22;5055;52.054;8.524;2023-11-21T07:28:36;8.20;97.00
10030;DHT22;5055;52.054;8.524;2023-11-21T07:31:06;8.20;97.00
10030;DHT22;5055;52.054;8.524;2023-11-21T07:33:34;8.20;97.00
10030;DHT22;5055;52.054;8.524;2023-11-21T07:36:03;8.20;97.00
10030;DHT22;5055;52.054;8.524;2023-11-21T07:38:31;8.30;97.00
10030;DHT22;5055;52.054;8.524;2023-11-21T07:41:00;8.30;97.00
10030;DHT22;5055;52.054;8.524;2023-11-21T07:43:29;8.30;97.00
10030;DHT22;5055;52.054;8.524;2023-11-21T07:46:02;8.30;97.00
10030;DHT22;5055;52.054;8.524;2023-11-21T07:48:32;8.30;97.00
10030;DHT22;5055;52.054;8.524;2023-11-21T07:51:01;8.30;97.00
10030;DHT22;5055;52.054;8.524;2023-11-21T07:53:31;8.30;97.00
10030;DHT22;5055;52.054;8.524;2023-11-21T07:56:03;8.30;97.00
10030;DHT22;5055;52.054;8.524;2023-11-21T07:58:31;8.30;97.00
10030;DHT22;5055;52.054;8.524;2023-11-21T08:01:05;8.30;97.00
10030;DHT22;5055;52.054;8.524;2023-11-21T08:03:36;8.30;97.00
10030;DHT22;5055;52.054;8.524;2023-11-21T08:06:06;8.30;97.00
10030;DHT22;5055;52.054;8.524;2023-11-21T08:08:36;8.30;97.00
10030;DHT22;5055;52.054;8.524;2023-11-21T08:11:05;8.30;97.00
10030;DHT22;5055;52.054;8.524;2023-11-21T08:13:36;8.30;97.00
10030;DHT22;5055;52.054;8.524;2023-11-21T08:16:14;8.30;97.00
10030;DHT22;5055;52.054;8.524;2023-11-21T08:18:48;8.30;97.00
10030;DHT22;5055;52.054;8.524;2023-11-21T08:21:16;8.30;97.00
10030;DHT22;5055;52.054;8.524;2023-11-21T08:23:44;8.30;97.00
10030;DHT22;5055;52.054;8.524;2023-11-21T08:26:12;8.30;97.00
10030;DHT22;5055;52.054;8.524;2023-11-21T08:28:40;8.40;97.00
10030;DHT22;5055;52.054;8.524;2023-11-21T08:31:08;8.40;97.00
10030;DHT22;5055;52.054;8.524;2023-11-21T08:33:39;8.40;97.00
10030;DHT22;5055;52.054;8.524;2023-11-21T08:36:11;8.40;97.00
10030;DHT22;5055;52.054;8.524;2023-11-21T08:38:39;8.40;97.00
10030;DHT22;5055;52.054;8.524;2023-11-21T08:41:08;8.40;97.00
10030;DHT22;5055;52.054;8.524;2023-11-21T08:43:37;8.40;97.00
10030;DHT22;5055;52.054;8.524;2023-11-21T08:46:07;8.40;97.00
10030;DHT22;5055;52.054;8.524;2023-11-21T08:48:36;8.40;97.00
10030;DHT22;5055;52.054;8.524;2023-11-21T08:51:05;8.40;97.00
10030;DHT22;5055;52.054;8.524;2023-11-21T08:53:35;8.50;97.00
10030;DHT22;5055;52.054;8.524;2023-11-21T08:56:04;8.50;97.00
10030;DHT22;5055;52.054;8.524;2023-11-21T08:58:32;8.50;97.00
10030;DHT22;5055;52.054;8.524;2023-11-21T09:01:01;8.50;97.00
10030;DHT22;5055;52.054;8.524;2023-11-21T09:03:29;8.50;97.00
10030;DHT22;5055;52.054;8.524;2023-11-21T09:05:59;8.50;97.00
10030;DHT22;5055;52.054;8.524;2023-11-21T09:08:27;8.50;97.00
10030;DHT22;5055;52.054;8.524;2023-11-21T09:10:57;8.50;97.00
10030;DHT22;5055;52.054;8.524;2023-11-21T09:13:26;8.50;97.00
10030;DHT22;5055;52.054;8.524;2023-11-21T09:15:54;8.50;97.00
10030;DHT22;5055;52.054;8.524;2023-11-21T09:18:22;8.50;97.00
10030;DHT22;5055;52.054;8.524;2023-11-21T09:20:50;8.50;97.00
10030;DHT22;5055;52.054;8.524;2023-11-21T09:23:18;8.50;97.00
10030;DHT22;5055;52.054;8.524;2023-11-21T09:25:46;8.50;97.00
10030;DHT22;5055;52.054;8.524;2023-11-21T09:28:18;8.50;97.00
10030;DHT22;5055;52.054;8.524;2023-11-21T09:30:46;8.50;97.00
10030;DHT22;5055;52.054;8.524;2023-11-21T09:33:15;8.50;97.00
10030;DHT22;5055;52.054;8.524;2023-11-21T09:35:44;8.40;97.00
10030;DHT22;5055;52.054;8.524;2023-11-21T09:38:12;8.40;97.00
10030;DHT22;5055;52.054;8.524;2023-11-21T09:40:41;8.40;97.00
10030;DHT22;5055;52.054;8.524;2023-11-21T09:43:16;8.40;97.00
10030;DHT22;5055;52.054;8.524;2023-11-21T09:45:51;8.50;97.00
10030;DHT22;5055;52.054;8.524;2023-11-21T09:48:22;8.50;97.00
10030;DHT22;5055;52.054;8.524;2023-11-21T09:50:53;8.40;97.00
10030;DHT22;5055;52.054;8.524;2023-11-21T09:53:22;8.50;97.00
10030;DHT22;5055;52.054;8.524;2023-11-21T09:55:53;8.50;97.00
10030;DHT22;5055;52.054;8.524;2023-11-21T09:58:21;8.40;97.00
10030;DHT22;5055;52.054;8.524;2023-11-21T10:00:55;8.40;97.00
10030;DHT22;5055;52.054;8.524;2023-11-21T10:03:25;8.40;97.00
10030;DHT22;5055;52.054;8.524;2023-11-21T10:05:56;8.40;97.00
10030;DHT22;5055;52.054;8.524;2023-11-21T10:08:27;8.30;97.00
10030;DHT22;5055;52.054;8.524;2023-11-21T10:11:15;8.30;97.00
10030;DHT22;5055;52.054;8.524;2023-11-21T10:13:45;8.30;97.00
10030;DHT22;5055;52.054;8.524;2023-11-21T10:16:18;8.30;97.00
10030;DHT22;5055;52.054;8.524;2023-11-21T10:18:52;8.30;97.00
10030;DHT22;5055;52.054;8.524;2023-11-21T10:21:35;8.20;97.00
10030;DHT22;5055;52.054;8.524;2023-11-21T10:24:03;8.20;97.00
10030;DHT22;5055;52.054;8.524;2023-11-21T10:26:32;8.20;97.00
10030;DHT22;5055;52.054;8.524;2023-11-21T10:29:16;8.20;97.00
10030;DHT22;5055;52.054;8.524;2023-11-21T10:31:49;8.10;97.00
10030;DHT22;5055;52.054;8.524;2023-11-21T10:34:19;8.10;97.00
10030;DHT22;5055;52.054;8.524;2023-11-21T10:36:48;8.10;97.00
10030;DHT22;5055;52.054;8.524;2023-11-21T10:39:17;8.00;97.00
10030;DHT22;5055;52.054;8.524;2023-11-21T10:41:46;8.00;97.00
10030;DHT22;5055;52.054;8.524;2023-11-21T10:44:16;8.00;97.00
10030;DHT22;5055;52.054;8.524;2023-11-21T10:46:51;8.00;97.00
10030;DHT22;5055;52.054;8.524;2023-11-21T10:49:25;8.00;97.00
10030;DHT22;5055;52.054;8.524;2023-11-21T10:51:54;8.00;97.00
10030;DHT22;5055;52.054;8.524;2023-11-21T10:54:23;8.00;97.00
10030;DHT22;5055;52.054;8.524;2023-11-21T10:56:56;8.00;97.00
10030;DHT22;5055;52.054;8.524;2023-11-21T10:59:29;7.90;97.00
10030;DHT22;5055;52.054;8.524;2023-11-21T11:02:02;7.90;97.00
10030;DHT22;5055;52.054;8.524;2023-11-21T11:04:34;7.90;97.00
10030;DHT22;5055;52.054;8.524;2023-11-21T11:07:05;7.90;97.00
10030;DHT22;5055;52.054;8.524;2023-11-21T11:09:39;7.90;97.00
10030;DHT22;5055;52.054;8.524;2023-11-21T11:12:08;7.90;97.00
10030;DHT22;5055;52.054;8.524;2023-11-21T11:14:40;7.90;97.00
10030;DHT22;5055;52.054;8.524;2023-11-21T11:17:13;7.90;97.00
10030;DHT22;5055;52.054;8.524;2023-11-21T11:19:44;7.90;97.00
10030;DHT22;5055;52.054;8.524;2023-11-21T11:22:23;7.90;97.00
10030;DHT22;5055;52.054;8.524;2023-11-21T11:28:04;7.90;97.00
10030;DHT22;5055;52.054;8.524;2023-11-21T11:30:44;7.90;97.00
10030;DHT22;5055;52.054;8.524;2023-11-21T11:33:25;7.90;97.00
10030;DHT22;5055;52.054;8.524;2023-11-21T11:36:05;7.90;97.00
10030;DHT22;5055;52.054;8.524;2023-11-21T11:38:35;7.90;97.00
10030;DHT22;5055;52.054;8.524;2023-11-21T11:41:04;7.90;97.00
10030;DHT22;5055;52.054;8.524;2023-11-21T11:43:33;7.80;97.00
10030;DHT22;5055;52.054;8.524;2023-11-21T11:46:11;7.80;97.00
10030;DHT22;5055;52.054;8.524;2023-11-21T11:48:43;7.80;97.00
10030;DHT22;5055;52.054;8.524;2023-11-21T11:51:14;7.70;97.00
10030;DHT22;5055;52.054;8.524;2023-11-21T11:53:45;7.70;97.00
10030;DHT22;5055;52.054;8.524;2023-11-21T11:56:25;7.70;97.00
10030;DHT22;5055;52.054;8.524;2023-11-21T11:58:54;7.70;97.00
10030;DHT22;5055;52.054;8.524;2023-11-21T12:01:25;7.60;97.00
10030;DHT22;5055;52.054;8.524;2023-11-21T12:04:26;7.60;97.00
10030;DHT22;5055;52.054;8.524;2023-11-21T12:07:02;7.50;97.00
10030;DHT22;5055;52.054;8.524;2023-11-21T12:09:31;7.50;97.00
10030;DHT22;5055;52.054;8.524;2023-11-21T12:12:00;7.50;97.00
10030;DHT22;5055;52.054;8.524;2023-11-21T12:14:30;7.50;97.00
10030;DHT22;5055;52.054;8.524;2023-11-21T12:16:59;7.50;97.00
10030;DHT22;5055;52.054;8.524;2023-11-21T12:19:30;7.40;97.00
10030;DHT22;5055;52.054;8.524;2023-11-21T12:21:59;7.40;97.00
10030;DHT22;5055;52.054;8.524;2023-11-21T12:24:27;7.40;97.00
10030;DHT22;5055;52.054;8.524;2023-11-21T12:26:56;7.40;97.00
10030;DHT22;5055;52.054;8.524;2023-11-21T12:29:24;7.40;97.00
10030;DHT22;5055;52.054;8.524;2023-11-21T12:31:52;7.40;97.00
10030;DHT22;5055;52.054;8.524;2023-11-21T12:34:20;7.40;97.00
10030;DHT22;5055;52.054;8.524;2023-11-21T12:36:51;7.40;97.00
10030;DHT22;5055;52.054;8.524;2023-11-21T12:39:22;7.40;97.00
10030;DHT22;5055;52.054;8.524;2023-11-21T12:41:50;7.50;97.00
10030;DHT22;5055;52.054;8.524;2023-11-21T12:44:18;7.50;97.00
10030;DHT22;5055;52.054;8.524;2023-11-21T12:46:47;7.50;97.00
10030;DHT22;5055;52.054;8.524;2023-11-21T12:49:15;7.60;97.00
10030;DHT22;5055;52.054;8.524;2023-11-21T12:51:45;7.60;97.00
10030;DHT22;5055;52.054;8.524;2023-11-21T12:54:15;7.60;97.00
10030;DHT22;5055;52.054;8.524;2023-11-21T12:56:45;7.60;97.00
10030;DHT22;5055;52.054;8.524;2023-11-21T12:59:16;7.60;97.00
10030;DHT22;5055;52.054;8.524;2023-11-21T13:01:45;7.60;97.00
10030;DHT22;5055;52.054;8.524;2023-11-21T13:04:14;7.60;97.00
10030;DHT22;5055;52.054;8.524;2023-11-21T13:06:42;7.60;97.00
10030;DHT22;5055;52.054;8.524;2023-11-21T13:09:10;7.70;97.00
10030;DHT22;5055;52.054;8.524;2023-11-21T13:11:40;7.80;97.00
10030;DHT22;5055;52.054;8.524;2023-11-21T13:14:11;7.80;97.00
10030;DHT22;5055;52.054;8.524;2023-11-21T13:16:39;7.80;97.00
10030;DHT22;5055;52.054;8.524;2023-11-21T13:19:13;7.80;97.00
10030;DHT22;5055;52.054;8.524;2023-11-21T13:21:41;7.80;97.00
10030;DHT22;5055;52.054;8.524;2023-11-21T13:24:09;7.80;97.00
10030;DHT22;5055;52.054;8.524;2023-11-21T13:26:37;7.70;97.00
10030;DHT22;5055;52.054;8.524;2023-11-21T13:29:07;7.80;97.00
10030;DHT22;5055;52.054;8.524;2023-11-21T13:31:35;7.70;97.00
10030;DHT22;5055;52.054;8.524;2023-11-21T13:34:05;7.70;97.00
10030;DHT22;5055;52.054;8.524;2023-11-21T13:36:35;7.70;97.00
10030;DHT22;5055;52.054;8.524;2023-11-21T13:39:03;7.70;97.00
10030;DHT22;5055;52.054;8.524;2023-11-21T13:41:35;7.70;97.00
10030;DHT22;5055;52.054;8.524;2023-11-21T13:44:07;7.70;97.00
10030;DHT22;5055;52.054;8.524;2023-11-21T13:46:43;7.70;97.00
10030;DHT22;5055;52.054;8.524;2023-11-21T13:49:13;7.80;97.00
10030;DHT22;5055;52.054;8.524;2023-11-21T13:51:42;7.70;97.00
10030;DHT22;5055;52.054;8.524;2023-11-21T13:54:12;7.70;97.00
10030;DHT22;5055;52.054;8.524;2023-11-21T13:56:41;7.70;97.00
10030;DHT22;5055;52.054;8.524;2023-11-21T13:59:13;7.70;97.00
10030;DHT22;5055;52.054;8.524;2023-11-21T14:01:48;7.70;97.00
10030;DHT22;5055;52.054;8.524;2023-11-21T14:04:25;7.60;97.00
10030;DHT22;5055;52.054;8.524;2023-11-21T14:07:14;7.60;97.00
10030;DHT22;5055;52.054;8.524;2023-11-21T14:09:53;7.60;97.00
10030;DHT22;5055;52.054;8.524;2023-11-21T14:12:21;7.50;97.00
10030;DHT22;5055;52.054;8.524;2023-11-21T14:14:51;7.50;97.00
10030;DHT22;5055;52.054;8.524;2023-11-21T14:17:21;7.50;97.00
10030;DHT22;5055;52.054;8.524;2023-11-21T14:19:51;7.50;97.00
10030;DHT22;5055;52.054;8.524;2023-11-21T14:22:19;7.50;97.00
10030;DHT22;5055;52.054;8.524;2023-11-21T14:24:47;7.50;97.00
10030;DHT22;5055;52.054;8.524;2023-11-21T14:27:17;7.50;97.00
10030;DHT22;5055;52.054;8.524;2023-11-21T14:29:45;7.50;97.00
10030;DHT22;5055;52.054;8.524;2023-11-21T14:32:15;7.50;97.00
10030;DHT22;5055;52.054;8.524;2023-11-21T14:34:44;7.40;97.00
10030;DHT22;5055;52.054;8.524;2023-11-21T14:37:14;7.40;97.00
10030;DHT22;5055;52.054;8.524;2023-11-21T14:39:42;7.40;97.00
10030;DHT22;5055;52.054;8.524;2023-11-21T14:42:13;7.40;97.00
10030;DHT22;5055;52.054;8.524;2023-11-21T14:44:42;7.30;97.00
10030;DHT22;5055;52.054;8.524;2023-11-21T14:47:10;7.30;97.00
10030;DHT22;5055;52.054;8.524;2023-11-21T14:49:45;7.30;97.00
10030;DHT22;5055;52.054;8.524;2023-11-21T14:52:20;7.30;97.00
10030;DHT22;5055;52.054;8.524;2023-11-21T14:55:00;7.30;97.00
10030;DHT22;5055;52.054;8.524;2023-11-21T14:57:42;7.30;97.00
10030;DHT22;5055;52.054;8.524;2023-11-21T15:00:16;7.30;97.00
10030;DHT22;5055;52.054;8.524;2023-11-21T15:03:02;7.30;97.00
10030;DHT22;5055;52.054;8.524;2023-11-21T15:05:33;7.30;97.00
10030;DHT22;5055;52.054;8.524;2023-11-21T15:08:04;7.30;97.00
10030;DHT22;5055;52.054;8.524;2023-11-21T15:10:48;7.20;97.00
10030;DHT22;5055;52.054;8.524;2023-11-21T15:13:20;7.20;97.00
10030;DHT22;5055;52.054;8.524;2023-11-21T15:15:50;7.10;97.00
10030;DHT22;5055;52.054;8.524;2023-11-21T15:18:19;7.10;97.00
10030;DHT22;5055;52.054;8.524;2023-11-21T15:20:48;7.10;97.00
10030;DHT22;5055;52.054;8.524;2023-11-21T15:23:16;7.10;97.00
10030;DHT22;5055;52.054;8.524;2023-11-21T15:25:46;7.00;97.00
10030;DHT22;5055;52.054;8.524;2023-11-21T15:28:14;7.00;97.00
10030;DHT22;5055;52.054;8.524;2023-11-21T15:30:44;7.00;97.00
10030;DHT22;5055;52.054;8.524;2023-11-21T15:33:15;7.00;97.00
10030;DHT22;5055;52.054;8.524;2023-11-21T15:35:43;6.90;97.00
10030;DHT22;5055;52.054;8.524;2023-11-21T15:38:13;6.90;97.00
10030;DHT22;5055;52.054;8.524;2023-11-21T15:40:41;6.90;97.00
10030;DHT22;5055;52.054;8.524;2023-11-21T15:43:10;6.90;97.00
10030;DHT22;5055;52.054;8.524;2023-11-21T15:45:39;6.90;97.00
10030;DHT22;5055;52.054;8.524;2023-11-21T15:48:07;6.80;97.00
10030;DHT22;5055;52.054;8.524;2023-11-21T15:50:36;6.80;97.00
10030;DHT22;5055;52.054;8.524;2023-11-21T15:53:04;6.80;97.00
10030;DHT22;5055;52.054;8.524;2023-11-21T15:55:34;6.80;97.00
10030;DHT22;5055;52.054;8.524;2023-11-21T15:58:08;6.70;97.00
10030;DHT22;5055;52.054;8.524;2023-11-21T16:00:36;6.70;97.00
10030;DHT22;5055;52.054;8.524;2023-11-21T16:03:04;6.70;97.00
10030;DHT22;5055;52.054;8.524;2023-11-21T16:05:33;6.70;97.00
10030;DHT22;5055;52.054;8.524;2023-11-21T16:08:03;6.70;97.00
10030;DHT22;5055;52.054;8.524;2023-11-21T16:10:33;6.70;97.00
10030;DHT22;5055;52.054;8.524;2023-11-21T16:13:03;6.70;97.00
10030;DHT22;5055;52.054;8.524;2023-11-21T16:15:31;6.70;97.00
10030;DHT22;5055;52.054;8.524;2023-11-21T16:18:00;6.70;97.00
10030;DHT22;5055;52.054;8.524;2023-11-21T16:20:28;6.70;97.00
10030;DHT22;5055;52.054;8.524;2023-11-21T16:22:56;6.70;97.00